Terminal Aerodrome Forecast
Issued by NWS Wilmington, NC

Current Version | Previous Version | Graphics & Text | Print | Product List | Glossary Off
Versions: 1 2 3 4 5 6 7 8 9 10 11 12 13 14 15 16 17

674
FTUS42 KILM 281720
TAFILM
TAF
KILM 281720Z 2818/2918 23011KT P6SM SCT100
     FM282300 24007KT P6SM VCTS SCT140CB
     FM290300 25007KT P6SM SCT200 PROB30 2903/2905 4SM -TSRA
      BKN200CB BKN250
     FM291100 29006KT P6SM SCT250=

USA.gov is the U.S. government's official web portal to all federal, state and local government web resources and services.